sensor_id;sensor_type;location;lat;lon;timestamp;P1;durP1;ratioP1;P2;durP2;ratioP2
24619;SDS011;12763;55.802;37.404;2022-12-07T00:01:57;5.10;;;2.35;;
24619;SDS011;12763;55.802;37.404;2022-12-07T00:04:27;6.00;;;3.03;;
24619;SDS011;12763;55.802;37.404;2022-12-07T00:06:59;7.50;;;3.05;;
24619;SDS011;12763;55.802;37.404;2022-12-07T00:09:28;6.65;;;2.92;;
24619;SDS011;12763;55.802;37.404;2022-12-07T00:11:55;9.13;;;3.25;;
24619;SDS011;12763;55.802;37.404;2022-12-07T00:14:25;6.28;;;2.85;;
24619;SDS011;12763;55.802;37.404;2022-12-07T00:16:54;5.35;;;2.03;;
24619;SDS011;12763;55.802;37.404;2022-12-07T00:19:21;7.72;;;3.45;;
24619;SDS011;12763;55.802;37.404;2022-12-07T00:21:51;10.20;;;4.03;;
24619;SDS011;12763;55.802;37.404;2022-12-07T00:24:18;13.00;;;5.05;;
24619;SDS011;12763;55.802;37.404;2022-12-07T00:26:44;11.52;;;4.65;;
24619;SDS011;12763;55.802;37.404;2022-12-07T00:29:18;10.10;;;3.95;;
24619;SDS011;12763;55.802;37.404;2022-12-07T00:31:54;11.43;;;3.97;;
24619;SDS011;12763;55.802;37.404;2022-12-07T00:34:22;7.15;;;3.05;;
24619;SDS011;12763;55.802;37.404;2022-12-07T00:36:50;7.55;;;3.53;;
24619;SDS011;12763;55.802;37.404;2022-12-07T00:39:17;9.40;;;3.47;;
24619;SDS011;12763;55.802;37.404;2022-12-07T00:41:43;10.63;;;3.55;;
24619;SDS011;12763;55.802;37.404;2022-12-07T00:44:13;10.73;;;3.53;;
24619;SDS011;12763;55.802;37.404;2022-12-07T00:46:46;8.65;;;3.50;;
24619;SDS011;12763;55.802;37.404;2022-12-07T00:49:12;5.88;;;2.47;;
24619;SDS011;12763;55.802;37.404;2022-12-07T00:51:42;10.30;;;2.95;;
24619;SDS011;12763;55.802;37.404;2022-12-07T00:54:08;11.52;;;3.25;;
24619;SDS011;12763;55.802;37.404;2022-12-07T00:56:35;6.93;;;2.88;;
24619;SDS011;12763;55.802;37.404;2022-12-07T00:59:04;8.00;;;3.35;;
24619;SDS011;12763;55.802;37.404;2022-12-07T01:01:33;7.68;;;3.70;;
24619;SDS011;12763;55.802;37.404;2022-12-07T01:04:02;8.02;;;3.15;;
24619;SDS011;12763;55.802;37.404;2022-12-07T01:06:31;5.63;;;2.95;;
24619;SDS011;12763;55.802;37.404;2022-12-07T01:08:58;10.15;;;3.08;;
24619;SDS011;12763;55.802;37.404;2022-12-07T01:11:29;7.10;;;2.83;;
24619;SDS011;12763;55.802;37.404;2022-12-07T01:13:58;9.73;;;3.45;;
24619;SDS011;12763;55.802;37.404;2022-12-07T01:16:27;6.93;;;3.42;;
24619;SDS011;12763;55.802;37.404;2022-12-07T01:18:55;8.00;;;3.13;;
24619;SDS011;12763;55.802;37.404;2022-12-07T01:21:26;10.63;;;3.38;;
24619;SDS011;12763;55.802;37.404;2022-12-07T01:23:58;7.00;;;2.90;;
24619;SDS011;12763;55.802;37.404;2022-12-07T01:26:27;9.80;;;3.58;;
24619;SDS011;12763;55.802;37.404;2022-12-07T01:28:54;9.38;;;3.03;;
24619;SDS011;12763;55.802;37.404;2022-12-07T01:31:35;5.45;;;2.80;;
24619;SDS011;12763;55.802;37.404;2022-12-07T01:34:07;12.20;;;3.40;;
24619;SDS011;12763;55.802;37.404;2022-12-07T01:36:35;7.38;;;2.90;;
24619;SDS011;12763;55.802;37.404;2022-12-07T01:39:06;7.10;;;2.50;;
24619;SDS011;12763;55.802;37.404;2022-12-07T01:41:35;7.80;;;2.80;;
24619;SDS011;12763;55.802;37.404;2022-12-07T01:44:31;9.05;;;2.72;;
24619;SDS011;12763;55.802;37.404;2022-12-07T01:47:02;10.23;;;3.10;;
24619;SDS011;12763;55.802;37.404;2022-12-07T01:49:46;7.53;;;3.38;;
24619;SDS011;12763;55.802;37.404;2022-12-07T01:52:15;4.25;;;2.30;;
24619;SDS011;12763;55.802;37.404;2022-12-07T01:57:19;9.32;;;3.78;;
24619;SDS011;12763;55.802;37.404;2022-12-07T01:59:51;11.77;;;3.75;;
24619;SDS011;12763;55.802;37.404;2022-12-07T02:02:30;8.68;;;3.47;;
24619;SDS011;12763;55.802;37.404;2022-12-07T02:05:01;9.15;;;4.10;;
24619;SDS011;12763;55.802;37.404;2022-12-07T02:07:29;9.18;;;4.18;;
24619;SDS011;12763;55.802;37.404;2022-12-07T02:13:06;10.23;;;4.60;;
24619;SDS011;12763;55.802;37.404;2022-12-07T02:18:38;10.15;;;4.40;;
24619;SDS011;12763;55.802;37.404;2022-12-07T02:21:30;8.88;;;3.70;;
24619;SDS011;12763;55.802;37.404;2022-12-07T02:27:09;12.00;;;4.20;;
24619;SDS011;12763;55.802;37.404;2022-12-07T02:32:58;8.73;;;4.07;;
24619;SDS011;12763;55.802;37.404;2022-12-07T02:41:04;15.30;;;4.32;;
24619;SDS011;12763;55.802;37.404;2022-12-07T02:43:40;8.50;;;3.55;;
24619;SDS011;12763;55.802;37.404;2022-12-07T02:46:15;13.65;;;4.38;;
24619;SDS011;12763;55.802;37.404;2022-12-07T02:48:50;11.82;;;4.40;;
24619;SDS011;12763;55.802;37.404;2022-12-07T02:51:21;9.00;;;3.88;;
24619;SDS011;12763;55.802;37.404;2022-12-07T02:53:48;8.82;;;3.40;;
24619;SDS011;12763;55.802;37.404;2022-12-07T03:02:12;9.82;;;4.03;;
24619;SDS011;12763;55.802;37.404;2022-12-07T03:10:56;10.85;;;3.80;;
24619;SDS011;12763;55.802;37.404;2022-12-07T03:13:46;14.02;;;3.72;;
24619;SDS011;12763;55.802;37.404;2022-12-07T03:19:55;9.35;;;3.88;;
24619;SDS011;12763;55.802;37.404;2022-12-07T03:22:37;13.18;;;3.75;;
24619;SDS011;12763;55.802;37.404;2022-12-07T03:25:17;12.93;;;4.40;;
24619;SDS011;12763;55.802;37.404;2022-12-07T03:27:52;7.78;;;3.20;;
24619;SDS011;12763;55.802;37.404;2022-12-07T03:30:28;13.48;;;4.43;;
24619;SDS011;12763;55.802;37.404;2022-12-07T03:33:02;7.78;;;3.58;;
24619;SDS011;12763;55.802;37.404;2022-12-07T03:35:38;11.52;;;3.67;;
24619;SDS011;12763;55.802;37.404;2022-12-07T03:38:22;12.03;;;3.90;;
24619;SDS011;12763;55.802;37.404;2022-12-07T03:41:06;12.52;;;3.67;;
24619;SDS011;12763;55.802;37.404;2022-12-07T03:43:51;9.55;;;3.53;;
24619;SDS011;12763;55.802;37.404;2022-12-07T03:49:09;10.75;;;4.03;;
24619;SDS011;12763;55.802;37.404;2022-12-07T03:57:47;8.02;;;3.33;;
24619;SDS011;12763;55.802;37.404;2022-12-07T04:00:24;6.95;;;3.67;;
24619;SDS011;12763;55.802;37.404;2022-12-07T04:02:52;9.60;;;3.53;;
24619;SDS011;12763;55.802;37.404;2022-12-07T04:05:28;15.07;;;4.18;;
24619;SDS011;12763;55.802;37.404;2022-12-07T04:08:03;11.82;;;3.88;;
24619;SDS011;12763;55.802;37.404;2022-12-07T04:10:30;8.88;;;3.38;;
24619;SDS011;12763;55.802;37.404;2022-12-07T04:12:57;7.57;;;3.38;;
24619;SDS011;12763;55.802;37.404;2022-12-07T04:15:24;9.25;;;3.97;;
24619;SDS011;12763;55.802;37.404;2022-12-07T04:18:05;9.85;;;3.55;;
24619;SDS011;12763;55.802;37.404;2022-12-07T04:20:34;10.23;;;3.55;;
24619;SDS011;12763;55.802;37.404;2022-12-07T04:23:03;8.00;;;3.58;;
24619;SDS011;12763;55.802;37.404;2022-12-07T04:25:30;8.93;;;3.92;;
24619;SDS011;12763;55.802;37.404;2022-12-07T04:28:02;11.05;;;4.00;;
24619;SDS011;12763;55.802;37.404;2022-12-07T04:30:31;10.20;;;4.03;;
24619;SDS011;12763;55.802;37.404;2022-12-07T04:32:58;9.07;;;3.35;;
24619;SDS011;12763;55.802;37.404;2022-12-07T04:35:26;7.40;;;3.53;;
24619;SDS011;12763;55.802;37.404;2022-12-07T04:37:52;15.02;;;3.67;;
24619;SDS011;12763;55.802;37.404;2022-12-07T04:40:24;6.30;;;3.67;;
24619;SDS011;12763;55.802;37.404;2022-12-07T04:43:03;12.57;;;4.25;;
24619;SDS011;12763;55.802;37.404;2022-12-07T04:45:33;8.05;;;3.30;;
24619;SDS011;12763;55.802;37.404;2022-12-07T04:47:59;7.35;;;3.55;;
24619;SDS011;12763;55.802;37.404;2022-12-07T04:50:32;10.48;;;3.20;;
24619;SDS011;12763;55.802;37.404;2022-12-07T04:52:59;7.15;;;3.70;;
24619;SDS011;12763;55.802;37.404;2022-12-07T04:55:34;11.50;;;3.70;;
24619;SDS011;12763;55.802;37.404;2022-12-07T04:58:01;6.03;;;3.08;;
24619;SDS011;12763;55.802;37.404;2022-12-07T05:00:37;7.22;;;3.47;;
24619;SDS011;12763;55.802;37.404;2022-12-07T05:03:10;8.77;;;3.70;;
24619;SDS011;12763;55.802;37.404;2022-12-07T05:05:46;6.28;;;3.17;;
24619;SDS011;12763;55.802;37.404;2022-12-07T05:08:32;11.45;;;4.20;;
24619;SDS011;12763;55.802;37.404;2022-12-07T05:11:13;12.70;;;3.88;;
24619;SDS011;12763;55.802;37.404;2022-12-07T05:14:01;8.07;;;3.20;;
24619;SDS011;12763;55.802;37.404;2022-12-07T05:16:35;7.95;;;3.22;;
24619;SDS011;12763;55.802;37.404;2022-12-07T05:19:03;8.00;;;3.35;;
24619;SDS011;12763;55.802;37.404;2022-12-07T05:21:36;9.77;;;3.63;;
24619;SDS011;12763;55.802;37.404;2022-12-07T05:24:10;11.68;;;3.40;;
24619;SDS011;12763;55.802;37.404;2022-12-07T05:26:39;8.32;;;4.15;;
24619;SDS011;12763;55.802;37.404;2022-12-07T05:29:16;9.10;;;3.90;;
24619;SDS011;12763;55.802;37.404;2022-12-07T05:31:51;8.65;;;4.18;;
24619;SDS011;12763;55.802;37.404;2022-12-07T05:34:50;7.80;;;3.88;;
24619;SDS011;12763;55.802;37.404;2022-12-07T05:37:20;8.85;;;3.92;;
24619;SDS011;12763;55.802;37.404;2022-12-07T05:39:49;12.57;;;3.88;;
24619;SDS011;12763;55.802;37.404;2022-12-07T05:42:23;9.90;;;3.45;;
24619;SDS011;12763;55.802;37.404;2022-12-07T05:45:03;6.97;;;3.13;;
24619;SDS011;12763;55.802;37.404;2022-12-07T05:47:30;13.00;;;4.10;;
24619;SDS011;12763;55.802;37.404;2022-12-07T05:50:00;9.75;;;4.07;;
24619;SDS011;12763;55.802;37.404;2022-12-07T05:52:30;8.05;;;3.78;;
24619;SDS011;12763;55.802;37.404;2022-12-07T05:55:03;12.43;;;3.70;;
24619;SDS011;12763;55.802;37.404;2022-12-07T05:57:32;13.25;;;4.43;;
24619;SDS011;12763;55.802;37.404;2022-12-07T06:00:00;16.77;;;4.35;;
24619;SDS011;12763;55.802;37.404;2022-12-07T06:02:50;11.98;;;4.00;;
24619;SDS011;12763;55.802;37.404;2022-12-07T06:05:32;8.10;;;4.40;;
24619;SDS011;12763;55.802;37.404;2022-12-07T06:08:27;14.45;;;4.03;;
24619;SDS011;12763;55.802;37.404;2022-12-07T06:11:11;13.05;;;3.25;;
24619;SDS011;12763;55.802;37.404;2022-12-07T06:14:14;15.57;;;3.88;;
24619;SDS011;12763;55.802;37.404;2022-12-07T06:16:41;6.78;;;3.13;;
24619;SDS011;12763;55.802;37.404;2022-12-07T06:19:08;13.55;;;4.30;;
24619;SDS011;12763;55.802;37.404;2022-12-07T06:22:20;16.52;;;3.40;;
24619;SDS011;12763;55.802;37.404;2022-12-07T06:27:44;17.88;;;3.97;;
24619;SDS011;12763;55.802;37.404;2022-12-07T06:30:15;7.20;;;3.78;;
24619;SDS011;12763;55.802;37.404;2022-12-07T06:32:45;13.93;;;4.30;;
24619;SDS011;12763;55.802;37.404;2022-12-07T06:35:13;12.40;;;4.93;;
24619;SDS011;12763;55.802;37.404;2022-12-07T06:37:47;9.13;;;4.40;;
24619;SDS011;12763;55.802;37.404;2022-12-07T06:40:13;7.88;;;3.97;;
24619;SDS011;12763;55.802;37.404;2022-12-07T06:42:40;14.27;;;5.28;;
24619;SDS011;12763;55.802;37.404;2022-12-07T06:45:10;10.55;;;4.18;;
24619;SDS011;12763;55.802;37.404;2022-12-07T06:47:38;11.00;;;4.55;;
24619;SDS011;12763;55.802;37.404;2022-12-07T06:50:05;8.02;;;4.50;;
24619;SDS011;12763;55.802;37.404;2022-12-07T06:52:33;12.93;;;4.43;;
24619;SDS011;12763;55.802;37.404;2022-12-07T06:55:07;11.55;;;4.20;;
24619;SDS011;12763;55.802;37.404;2022-12-07T06:57:33;11.27;;;4.88;;
24619;SDS011;12763;55.802;37.404;2022-12-07T07:00:03;9.13;;;3.85;;
24619;SDS011;12763;55.802;37.404;2022-12-07T07:02:41;14.52;;;4.20;;
24619;SDS011;12763;55.802;37.404;2022-12-07T07:05:08;20.27;;;4.65;;
24619;SDS011;12763;55.802;37.404;2022-12-07T07:07:34;8.55;;;4.10;;
24619;SDS011;12763;55.802;37.404;2022-12-07T07:10:05;11.00;;;4.80;;
24619;SDS011;12763;55.802;37.404;2022-12-07T07:12:38;8.45;;;4.00;;
24619;SDS011;12763;55.802;37.404;2022-12-07T07:15:08;10.97;;;3.83;;
24619;SDS011;12763;55.802;37.404;2022-12-07T07:17:40;14.18;;;4.85;;
24619;SDS011;12763;55.802;37.404;2022-12-07T07:20:16;14.07;;;5.30;;
24619;SDS011;12763;55.802;37.404;2022-12-07T07:22:47;10.70;;;4.90;;
24619;SDS011;12763;55.802;37.404;2022-12-07T07:25:20;9.98;;;4.32;;
24619;SDS011;12763;55.802;37.404;2022-12-07T07:27:46;10.13;;;4.75;;
24619;SDS011;12763;55.802;37.404;2022-12-07T07:30:19;13.48;;;4.82;;
24619;SDS011;12763;55.802;37.404;2022-12-07T07:32:46;8.85;;;4.35;;
24619;SDS011;12763;55.802;37.404;2022-12-07T07:35:17;12.27;;;4.68;;
24619;SDS011;12763;55.802;37.404;2022-12-07T07:37:47;11.55;;;5.20;;
24619;SDS011;12763;55.802;37.404;2022-12-07T07:40:17;8.75;;;4.25;;
24619;SDS011;12763;55.802;37.404;2022-12-07T07:42:46;17.42;;;5.07;;
24619;SDS011;12763;55.802;37.404;2022-12-07T07:45:15;9.10;;;4.45;;
24619;SDS011;12763;55.802;37.404;2022-12-07T07:47:48;9.95;;;4.88;;
24619;SDS011;12763;55.802;37.404;2022-12-07T07:50:21;10.40;;;4.25;;
24619;SDS011;12763;55.802;37.404;2022-12-07T07:52:57;12.10;;;5.13;;
24619;SDS011;12763;55.802;37.404;2022-12-07T07:55:32;13.40;;;4.68;;
24619;SDS011;12763;55.802;37.404;2022-12-07T07:58:06;11.63;;;4.90;;
24619;SDS011;12763;55.802;37.404;2022-12-07T08:00:39;14.07;;;6.28;;
24619;SDS011;12763;55.802;37.404;2022-12-07T08:03:18;11.23;;;4.95;;
24619;SDS011;12763;55.802;37.404;2022-12-07T08:05:44;14.48;;;4.93;;
24619;SDS011;12763;55.802;37.404;2022-12-07T08:08:10;16.83;;;5.03;;
24619;SDS011;12763;55.802;37.404;2022-12-07T08:10:37;11.98;;;5.32;;
24619;SDS011;12763;55.802;37.404;2022-12-07T08:13:03;12.98;;;5.38;;
24619;SDS011;12763;55.802;37.404;2022-12-07T08:15:42;21.67;;;5.85;;
24619;SDS011;12763;55.802;37.404;2022-12-07T08:18:10;18.33;;;5.45;;
24619;SDS011;12763;55.802;37.404;2022-12-07T08:20:38;13.93;;;5.25;;
24619;SDS011;12763;55.802;37.404;2022-12-07T08:23:06;9.85;;;4.63;;
24619;SDS011;12763;55.802;37.404;2022-12-07T08:25:34;13.55;;;4.82;;
24619;SDS011;12763;55.802;37.404;2022-12-07T08:28:02;13.43;;;5.25;;
24619;SDS011;12763;55.802;37.404;2022-12-07T08:30:32;10.85;;;5.00;;
24619;SDS011;12763;55.802;37.404;2022-12-07T08:32:58;11.70;;;5.05;;
24619;SDS011;12763;55.802;37.404;2022-12-07T08:35:25;16.90;;;6.25;;
24619;SDS011;12763;55.802;37.404;2022-12-07T08:37:51;11.32;;;5.05;;
24619;SDS011;12763;55.802;37.404;2022-12-07T08:40:17;13.63;;;5.85;;
24619;SDS011;12763;55.802;37.404;2022-12-07T08:42:48;16.05;;;5.63;;
24619;SDS011;12763;55.802;37.404;2022-12-07T08:45:16;14.05;;;6.05;;
24619;SDS011;12763;55.802;37.404;2022-12-07T08:47:54;14.57;;;5.70;;
24619;SDS011;12763;55.802;37.404;2022-12-07T08:50:31;15.77;;;5.78;;
24619;SDS011;12763;55.802;37.404;2022-12-07T08:52:58;22.58;;;5.53;;
24619;SDS011;12763;55.802;37.404;2022-12-07T08:55:25;15.90;;;5.05;;
24619;SDS011;12763;55.802;37.404;2022-12-07T08:57:53;11.13;;;4.45;;
24619;SDS011;12763;55.802;37.404;2022-12-07T09:00:20;21.58;;;5.30;;
24619;SDS011;12763;55.802;37.404;2022-12-07T09:02:49;16.30;;;5.90;;
24619;SDS011;12763;55.802;37.404;2022-12-07T09:05:16;13.27;;;5.30;;
24619;SDS011;12763;55.802;37.404;2022-12-07T09:07:46;13.20;;;5.55;;
24619;SDS011;12763;55.802;37.404;2022-12-07T09:10:23;19.02;;;5.13;;
24619;SDS011;12763;55.802;37.404;2022-12-07T09:12:58;15.65;;;5.50;;
24619;SDS011;12763;55.802;37.404;2022-12-07T09:15:28;11.40;;;4.95;;
24619;SDS011;12763;55.802;37.404;2022-12-07T09:17:57;14.85;;;4.82;;
24619;SDS011;12763;55.802;37.404;2022-12-07T09:20:24;9.73;;;4.95;;
24619;SDS011;12763;55.802;37.404;2022-12-07T09:22:50;19.88;;;5.05;;
24619;SDS011;12763;55.802;37.404;2022-12-07T09:25:16;10.27;;;4.75;;
24619;SDS011;12763;55.802;37.404;2022-12-07T09:27:46;14.40;;;4.82;;
24619;SDS011;12763;55.802;37.404;2022-12-07T09:30:12;16.92;;;4.97;;
24619;SDS011;12763;55.802;37.404;2022-12-07T09:32:43;21.33;;;5.53;;
24619;SDS011;12763;55.802;37.404;2022-12-07T09:35:12;9.77;;;4.97;;
24619;SDS011;12763;55.802;37.404;2022-12-07T09:37:39;15.20;;;4.90;;
24619;SDS011;12763;55.802;37.404;2022-12-07T09:40:05;10.57;;;5.13;;
24619;SDS011;12763;55.802;37.404;2022-12-07T09:42:36;13.30;;;4.88;;
24619;SDS011;12763;55.802;37.404;2022-12-07T09:45:31;11.20;;;5.63;;
24619;SDS011;12763;55.802;37.404;2022-12-07T09:48:02;20.98;;;5.50;;
24619;SDS011;12763;55.802;37.404;2022-12-07T09:50:30;10.15;;;4.45;;
24619;SDS011;12763;55.802;37.404;2022-12-07T09:53:07;12.68;;;5.22;;
24619;SDS011;12763;55.802;37.404;2022-12-07T09:55:38;15.85;;;4.82;;
24619;SDS011;12763;55.802;37.404;2022-12-07T09:58:11;12.25;;;5.03;;
24619;SDS011;12763;55.802;37.404;2022-12-07T10:03:38;11.98;;;5.10;;
24619;SDS011;12763;55.802;37.404;2022-12-07T10:06:09;11.05;;;4.35;;
24619;SDS011;12763;55.802;37.404;2022-12-07T10:08:38;16.25;;;5.68;;
24619;SDS011;12763;55.802;37.404;2022-12-07T10:11:06;12.77;;;4.90;;
24619;SDS011;12763;55.802;37.404;2022-12-07T10:13:54;12.02;;;4.95;;
24619;SDS011;12763;55.802;37.404;2022-12-07T10:16:40;16.15;;;4.68;;
24619;SDS011;12763;55.802;37.404;2022-12-07T10:19:23;11.20;;;4.93;;
24619;SDS011;12763;55.802;37.404;2022-12-07T10:22:13;12.57;;;4.85;;
24619;SDS011;12763;55.802;37.404;2022-12-07T10:24:46;11.35;;;4.93;;
24619;SDS011;12763;55.802;37.404;2022-12-07T10:27:25;13.57;;;4.88;;
24619;SDS011;12763;55.802;37.404;2022-12-07T10:30:15;12.73;;;5.10;;
24619;SDS011;12763;55.802;37.404;2022-12-07T10:32:53;13.52;;;5.30;;
24619;SDS011;12763;55.802;37.404;2022-12-07T10:37:52;12.82;;;4.72;;
24619;SDS011;12763;55.802;37.404;2022-12-07T10:40:30;16.48;;;4.47;;
24619;SDS011;12763;55.802;37.404;2022-12-07T10:43:02;13.02;;;4.95;;
24619;SDS011;12763;55.802;37.404;2022-12-07T10:45:29;11.50;;;4.80;;
24619;SDS011;12763;55.802;37.404;2022-12-07T11:15:53;10.45;;;4.55;;
24619;SDS011;12763;55.802;37.404;2022-12-07T11:19:06;12.05;;;4.68;;
24619;SDS011;12763;55.802;37.404;2022-12-07T11:27:00;11.95;;;5.65;;
24619;SDS011;12763;55.802;37.404;2022-12-07T11:35:22;10.02;;;4.80;;
24619;SDS011;12763;55.802;37.404;2022-12-07T11:41:21;14.57;;;5.05;;
24619;SDS011;12763;55.802;37.404;2022-12-07T11:44:22;12.05;;;5.00;;
24619;SDS011;12763;55.802;37.404;2022-12-07T11:52:22;14.57;;;4.70;;
24619;SDS011;12763;55.802;37.404;2022-12-07T11:58:34;16.92;;;6.05;;
24619;SDS011;12763;55.802;37.404;2022-12-07T12:04:27;12.98;;;5.43;;
24619;SDS011;12763;55.802;37.404;2022-12-07T12:06:35;15.20;;;6.03;;
24619;SDS011;12763;55.802;37.404;2022-12-07T12:09:06;14.38;;;6.13;;
24619;SDS011;12763;55.802;37.404;2022-12-07T12:11:59;13.55;;;5.38;;
24619;SDS011;12763;55.802;37.404;2022-12-07T12:14:37;18.30;;;6.03;;
24619;SDS011;12763;55.802;37.404;2022-12-07T12:20:20;25.73;;;6.72;;
24619;SDS011;12763;55.802;37.404;2022-12-07T12:25:47;17.60;;;6.28;;
24619;SDS011;12763;55.802;37.404;2022-12-07T12:28:50;20.98;;;6.43;;
24619;SDS011;12763;55.802;37.404;2022-12-07T12:31:46;14.27;;;6.43;;
24619;SDS011;12763;55.802;37.404;2022-12-07T12:42:53;17.00;;;6.22;;
24619;SDS011;12763;55.802;37.404;2022-12-07T12:45:32;18.17;;;6.20;;
24619;SDS011;12763;55.802;37.404;2022-12-07T12:54:12;17.73;;;6.47;;
24619;SDS011;12763;55.802;37.404;2022-12-07T13:00:23;14.95;;;5.95;;
24619;SDS011;12763;55.802;37.404;2022-12-07T13:02:50;19.52;;;7.47;;
24619;SDS011;12763;55.802;37.404;2022-12-07T13:05:24;17.65;;;7.22;;
24619;SDS011;12763;55.802;37.404;2022-12-07T13:08:28;27.88;;;7.65;;
24619;SDS011;12763;55.802;37.404;2022-12-07T13:10:50;19.10;;;7.60;;
24619;SDS011;12763;55.802;37.404;2022-12-07T13:15:49;22.63;;;7.13;;
24619;SDS011;12763;55.802;37.404;2022-12-07T13:26:20;17.88;;;6.80;;
24619;SDS011;12763;55.802;37.404;2022-12-07T13:31:41;16.42;;;6.45;;
24619;SDS011;12763;55.802;37.404;2022-12-07T13:36:57;18.85;;;6.43;;
24619;SDS011;12763;55.802;37.404;2022-12-07T13:39:26;19.27;;;6.70;;
24619;SDS011;12763;55.802;37.404;2022-12-07T13:41:56;29.58;;;7.30;;
24619;SDS011;12763;55.802;37.404;2022-12-07T13:44:25;29.48;;;7.97;;
24619;SDS011;12763;55.802;37.404;2022-12-07T13:49:55;15.85;;;6.63;;
24619;SDS011;12763;55.802;37.404;2022-12-07T13:52:24;19.13;;;7.60;;
24619;SDS011;12763;55.802;37.404;2022-12-07T13:54:59;22.17;;;7.70;;
24619;SDS011;12763;55.802;37.404;2022-12-07T13:57:29;15.82;;;7.13;;
24619;SDS011;12763;55.802;37.404;2022-12-07T14:00:01;21.48;;;7.55;;
24619;SDS011;12763;55.802;37.404;2022-12-07T14:02:32;25.48;;;6.43;;
24619;SDS011;12763;55.802;37.404;2022-12-07T14:07:56;19.33;;;6.88;;
24619;SDS011;12763;55.802;37.404;2022-12-07T14:13:01;17.65;;;6.97;;
24619;SDS011;12763;55.802;37.404;2022-12-07T14:15:32;25.08;;;7.38;;
24619;SDS011;12763;55.802;37.404;2022-12-07T14:18:01;21.55;;;7.57;;
24619;SDS011;12763;55.802;37.404;2022-12-07T14:20:38;16.00;;;7.22;;
24619;SDS011;12763;55.802;37.404;2022-12-07T14:23:24;22.30;;;7.85;;
24619;SDS011;12763;55.802;37.404;2022-12-07T14:26:06;17.95;;;7.10;;
24619;SDS011;12763;55.802;37.404;2022-12-07T14:28:45;27.25;;;7.57;;
24619;SDS011;12763;55.802;37.404;2022-12-07T14:31:13;18.38;;;7.05;;
24619;SDS011;12763;55.802;37.404;2022-12-07T14:33:46;19.42;;;7.57;;
24619;SDS011;12763;55.802;37.404;2022-12-07T14:36:13;22.55;;;8.40;;
24619;SDS011;12763;55.802;37.404;2022-12-07T14:38:43;15.35;;;6.68;;
24619;SDS011;12763;55.802;37.404;2022-12-07T14:41:14;21.42;;;8.00;;
24619;SDS011;12763;55.802;37.404;2022-12-07T14:44:01;23.23;;;8.20;;
24619;SDS011;12763;55.802;37.404;2022-12-07T14:46:32;22.67;;;7.68;;
24619;SDS011;12763;55.802;37.404;2022-12-07T14:49:02;14.57;;;5.80;;
24619;SDS011;12763;55.802;37.404;2022-12-07T14:51:31;19.67;;;6.82;;
24619;SDS011;12763;55.802;37.404;2022-12-07T14:54:03;19.13;;;7.68;;
24619;SDS011;12763;55.802;37.404;2022-12-07T14:56:33;17.42;;;7.35;;
24619;SDS011;12763;55.802;37.404;2022-12-07T14:58:59;22.13;;;6.93;;
24619;SDS011;12763;55.802;37.404;2022-12-07T15:01:25;15.65;;;6.93;;
24619;SDS011;12763;55.802;37.404;2022-12-07T15:03:51;17.05;;;5.93;;
24619;SDS011;12763;55.802;37.404;2022-12-07T15:06:17;29.70;;;6.85;;
24619;SDS011;12763;55.802;37.404;2022-12-07T15:08:44;18.52;;;6.80;;
24619;SDS011;12763;55.802;37.404;2022-12-07T15:11:14;17.52;;;6.53;;
24619;SDS011;12763;55.802;37.404;2022-12-07T15:13:41;15.57;;;6.38;;
24619;SDS011;12763;55.802;37.404;2022-12-07T15:16:26;20.60;;;7.40;;
24619;SDS011;12763;55.802;37.404;2022-12-07T15:18:52;17.77;;;6.50;;
24619;SDS011;12763;55.802;37.404;2022-12-07T15:21:19;14.80;;;6.50;;
24619;SDS011;12763;55.802;37.404;2022-12-07T15:23:45;19.33;;;5.93;;
24619;SDS011;12763;55.802;37.404;2022-12-07T15:26:13;20.20;;;6.93;;
24619;SDS011;12763;55.802;37.404;2022-12-07T15:28:41;17.88;;;6.72;;
24619;SDS011;12763;55.802;37.404;2022-12-07T15:31:14;17.58;;;6.05;;
24619;SDS011;12763;55.802;37.404;2022-12-07T15:33:42;16.60;;;6.80;;
24619;SDS011;12763;55.802;37.404;2022-12-07T15:36:15;14.95;;;6.05;;
24619;SDS011;12763;55.802;37.404;2022-12-07T15:38:46;21.13;;;8.38;;
24619;SDS011;12763;55.802;37.404;2022-12-07T15:41:15;13.55;;;6.65;;
24619;SDS011;12763;55.802;37.404;2022-12-07T15:43:42;21.08;;;7.85;;
24619;SDS011;12763;55.802;37.404;2022-12-07T15:46:32;18.92;;;7.30;;
24619;SDS011;12763;55.802;37.404;2022-12-07T15:49:00;20.25;;;6.88;;
24619;SDS011;12763;55.802;37.404;2022-12-07T15:51:27;17.00;;;7.28;;
24619;SDS011;12763;55.802;37.404;2022-12-07T15:53:53;14.38;;;6.03;;
24619;SDS011;12763;55.802;37.404;2022-12-07T15:56:26;18.05;;;7.38;;
24619;SDS011;12763;55.802;37.404;2022-12-07T15:58:52;26.77;;;7.78;;
24619;SDS011;12763;55.802;37.404;2022-12-07T16:01:24;21.42;;;6.88;;
24619;SDS011;12763;55.802;37.404;2022-12-07T16:03:53;19.55;;;7.57;;
24619;SDS011;12763;55.802;37.404;2022-12-07T16:06:19;23.98;;;7.53;;
24619;SDS011;12763;55.802;37.404;2022-12-07T16:08:48;14.13;;;6.10;;
24619;SDS011;12763;55.802;37.404;2022-12-07T16:11:14;13.18;;;5.90;;
24619;SDS011;12763;55.802;37.404;2022-12-07T16:13:40;21.73;;;7.03;;
24619;SDS011;12763;55.802;37.404;2022-12-07T16:16:08;20.25;;;8.55;;
24619;SDS011;12763;55.802;37.404;2022-12-07T16:18:41;22.05;;;7.20;;
24619;SDS011;12763;55.802;37.404;2022-12-07T16:21:08;22.27;;;7.38;;
24619;SDS011;12763;55.802;37.404;2022-12-07T16:23:34;16.55;;;6.72;;
24619;SDS011;12763;55.802;37.404;2022-12-07T16:26:03;21.23;;;7.68;;
24619;SDS011;12763;55.802;37.404;2022-12-07T16:28:31;32.30;;;7.18;;
24619;SDS011;12763;55.802;37.404;2022-12-07T16:31:16;23.45;;;7.75;;
24619;SDS011;12763;55.802;37.404;2022-12-07T16:33:48;16.80;;;7.38;;
24619;SDS011;12763;55.802;37.404;2022-12-07T16:36:15;22.20;;;7.53;;
24619;SDS011;12763;55.802;37.404;2022-12-07T16:38:42;19.73;;;7.95;;
24619;SDS011;12763;55.802;37.404;2022-12-07T16:41:12;18.38;;;6.78;;
24619;SDS011;12763;55.802;37.404;2022-12-07T16:43:38;21.42;;;7.47;;
24619;SDS011;12763;55.802;37.404;2022-12-07T16:46:04;17.13;;;7.07;;
24619;SDS011;12763;55.802;37.404;2022-12-07T16:48:31;19.98;;;6.68;;
24619;SDS011;12763;55.802;37.404;2022-12-07T16:51:02;19.55;;;7.18;;
24619;SDS011;12763;55.802;37.404;2022-12-07T16:53:38;17.95;;;7.18;;
24619;SDS011;12763;55.802;37.404;2022-12-07T16:56:12;15.80;;;7.05;;
24619;SDS011;12763;55.802;37.404;2022-12-07T16:58:43;22.02;;;7.35;;
24619;SDS011;12763;55.802;37.404;2022-12-07T17:01:17;23.50;;;7.47;;
24619;SDS011;12763;55.802;37.404;2022-12-07T17:03:53;19.45;;;6.60;;
24619;SDS011;12763;55.802;37.404;2022-12-07T17:06:23;19.17;;;7.30;;
24619;SDS011;12763;55.802;37.404;2022-12-07T17:08:51;24.33;;;7.82;;
24619;SDS011;12763;55.802;37.404;2022-12-07T17:11:22;15.93;;;7.35;;
24619;SDS011;12763;55.802;37.404;2022-12-07T17:13:50;19.30;;;7.82;;
24619;SDS011;12763;55.802;37.404;2022-12-07T17:16:36;19.05;;;8.35;;
24619;SDS011;12763;55.802;37.404;2022-12-07T17:19:06;18.05;;;7.25;;
24619;SDS011;12763;55.802;37.404;2022-12-07T17:21:34;21.38;;;7.18;;
24619;SDS011;12763;55.802;37.404;2022-12-07T17:24:02;23.92;;;7.28;;
24619;SDS011;12763;55.802;37.404;2022-12-07T17:26:44;19.55;;;7.25;;
24619;SDS011;12763;55.802;37.404;2022-12-07T17:29:11;18.55;;;7.13;;
24619;SDS011;12763;55.802;37.404;2022-12-07T17:31:40;16.10;;;6.75;;
24619;SDS011;12763;55.802;37.404;2022-12-07T17:34:10;23.33;;;8.02;;